sensor_id;sensor_type;location;lat;lon;timestamp;temperature;humidity
12907;DHT22;6521;50.498;8.474;2022-12-18T00:01:50;-7.49;93.35
12907;DHT22;6521;50.498;8.474;2022-12-18T00:04:23;-7.49;92.90
12907;DHT22;6521;50.498;8.474;2022-12-18T00:06:54;-7.54;93.10
12907;DHT22;6521;50.498;8.474;2022-12-18T00:09:25;-7.51;93.28
12907;DHT22;6521;50.498;8.474;2022-12-18T00:11:56;-7.52;93.26
12907;DHT22;6521;50.498;8.474;2022-12-18T00:14:27;-7.52;93.29
12907;DHT22;6521;50.498;8.474;2022-12-18T00:16:58;-7.58;93.08
12907;DHT22;6521;50.498;8.474;2022-12-18T00:19:31;-7.60;92.96
12907;DHT22;6521;50.498;8.474;2022-12-18T00:22:01;-7.63;93.03
12907;DHT22;6521;50.498;8.474;2022-12-18T00:24:32;-7.59;93.03
12907;DHT22;6521;50.498;8.474;2022-12-18T00:27:03;-7.71;92.62
12907;DHT22;6521;50.498;8.474;2022-12-18T00:29:34;-7.71;92.93
12907;DHT22;6521;50.498;8.474;2022-12-18T00:32:04;-7.65;93.04
12907;DHT22;6521;50.498;8.474;2022-12-18T00:34:35;-7.71;92.97
12907;DHT22;6521;50.498;8.474;2022-12-18T00:37:06;-7.71;93.11
12907;DHT22;6521;50.498;8.474;2022-12-18T00:39:38;-7.65;93.12
12907;DHT22;6521;50.498;8.474;2022-12-18T00:42:10;-7.68;93.09
12907;DHT22;6521;50.498;8.474;2022-12-18T00:44:59;-7.68;92.91
12907;DHT22;6521;50.498;8.474;2022-12-18T00:47:30;-7.66;92.99
12907;DHT22;6521;50.498;8.474;2022-12-18T00:50:01;-7.68;92.97
12907;DHT22;6521;50.498;8.474;2022-12-18T00:52:31;-7.69;92.85
12907;DHT22;6521;50.498;8.474;2022-12-18T00:55:02;-7.68;92.87
12907;DHT22;6521;50.498;8.474;2022-12-18T00:57:33;-7.68;92.78
12907;DHT22;6521;50.498;8.474;2022-12-18T01:00:05;-7.73;92.97
12907;DHT22;6521;50.498;8.474;2022-12-18T01:02:40;-7.72;93.12
12907;DHT22;6521;50.498;8.474;2022-12-18T01:05:12;-7.73;93.12
12907;DHT22;6521;50.498;8.474;2022-12-18T01:07:43;-7.73;93.25
12907;DHT22;6521;50.498;8.474;2022-12-18T01:10:14;-7.75;93.27
12907;DHT22;6521;50.498;8.474;2022-12-18T01:12:45;-7.72;93.34
12907;DHT22;6521;50.498;8.474;2022-12-18T01:15:17;-7.71;93.43
12907;DHT22;6521;50.498;8.474;2022-12-18T01:17:47;-7.72;93.20
12907;DHT22;6521;50.498;8.474;2022-12-18T01:20:18;-7.75;93.13
12907;DHT22;6521;50.498;8.474;2022-12-18T01:22:49;-7.75;92.94
12907;DHT22;6521;50.498;8.474;2022-12-18T01:25:20;-7.79;92.75
12907;DHT22;6521;50.498;8.474;2022-12-18T01:27:50;-7.82;92.84
12907;DHT22;6521;50.498;8.474;2022-12-18T01:30:22;-7.86;93.02
12907;DHT22;6521;50.498;8.474;2022-12-18T01:32:52;-7.90;93.14
12907;DHT22;6521;50.498;8.474;2022-12-18T01:35:23;-7.96;93.34
12907;DHT22;6521;50.498;8.474;2022-12-18T01:37:55;-7.92;93.48
12907;DHT22;6521;50.498;8.474;2022-12-18T01:40:25;-7.90;93.50
12907;DHT22;6521;50.498;8.474;2022-12-18T01:42:56;-7.89;93.47
12907;DHT22;6521;50.498;8.474;2022-12-18T01:45:30;-7.89;93.63
12907;DHT22;6521;50.498;8.474;2022-12-18T01:48:05;-7.87;93.64
12907;DHT22;6521;50.498;8.474;2022-12-18T01:50:40;-7.92;93.53
12907;DHT22;6521;50.498;8.474;2022-12-18T01:53:17;-7.92;93.66
12907;DHT22;6521;50.498;8.474;2022-12-18T01:55:55;-7.92;93.49
12907;DHT22;6521;50.498;8.474;2022-12-18T01:58:46;-7.89;93.56
12907;DHT22;6521;50.498;8.474;2022-12-18T02:01:21;-7.87;93.51
12907;DHT22;6521;50.498;8.474;2022-12-18T02:03:53;-7.86;93.37
12907;DHT22;6521;50.498;8.474;2022-12-18T02:06:36;-7.86;93.33
12907;DHT22;6521;50.498;8.474;2022-12-18T02:09:21;-7.86;93.25
12907;DHT22;6521;50.498;8.474;2022-12-18T02:11:59;-7.82;93.25
12907;DHT22;6521;50.498;8.474;2022-12-18T02:17:25;-7.86;92.98
12907;DHT22;6521;50.498;8.474;2022-12-18T02:20:18;-7.87;92.93
12907;DHT22;6521;50.498;8.474;2022-12-18T02:26:06;-7.92;92.66
12907;DHT22;6521;50.498;8.474;2022-12-18T02:29:00;-7.99;92.33
12907;DHT22;6521;50.498;8.474;2022-12-18T02:31:49;-7.99;92.55
12907;DHT22;6521;50.498;8.474;2022-12-18T02:34:24;-8.02;92.37
12907;DHT22;6521;50.498;8.474;2022-12-18T02:37:01;-8.03;92.48
12907;DHT22;6521;50.498;8.474;2022-12-18T02:39:34;-8.03;92.44
12907;DHT22;6521;50.498;8.474;2022-12-18T02:42:08;-8.09;92.12
12907;DHT22;6521;50.498;8.474;2022-12-18T02:44:45;-8.10;92.32
12907;DHT22;6521;50.498;8.474;2022-12-18T02:47:21;-8.16;92.10
12907;DHT22;6521;50.498;8.474;2022-12-18T02:50:05;-8.13;92.41
12907;DHT22;6521;50.498;8.474;2022-12-18T03:01:27;-8.18;92.32
12907;DHT22;6521;50.498;8.474;2022-12-18T03:04:10;-8.20;92.27
12907;DHT22;6521;50.498;8.474;2022-12-18T03:06:49;-8.24;92.29
12907;DHT22;6521;50.498;8.474;2022-12-18T03:09:42;-8.27;92.12
12907;DHT22;6521;50.498;8.474;2022-12-18T03:12:20;-8.35;91.96
12907;DHT22;6521;50.498;8.474;2022-12-18T03:15:18;-8.40;91.80
12907;DHT22;6521;50.498;8.474;2022-12-18T03:18:08;-8.45;91.71
12907;DHT22;6521;50.498;8.474;2022-12-18T03:20:43;-8.48;91.68
12907;DHT22;6521;50.498;8.474;2022-12-18T03:23:23;-8.52;91.64
12907;DHT22;6521;50.498;8.474;2022-12-18T03:25:58;-8.55;91.29
12907;DHT22;6521;50.498;8.474;2022-12-18T03:28:35;-8.59;90.98
12907;DHT22;6521;50.498;8.474;2022-12-18T03:31:09;-8.58;91.47
12907;DHT22;6521;50.498;8.474;2022-12-18T03:33:46;-8.65;91.04
12907;DHT22;6521;50.498;8.474;2022-12-18T03:36:19;-8.69;90.91
12907;DHT22;6521;50.498;8.474;2022-12-18T03:38:50;-8.76;90.77
12907;DHT22;6521;50.498;8.474;2022-12-18T03:41:33;-8.82;90.87
12907;DHT22;6521;50.498;8.474;2022-12-18T03:44:48;-8.85;91.05
12907;DHT22;6521;50.498;8.474;2022-12-18T03:50:12;-8.83;91.10
12907;DHT22;6521;50.498;8.474;2022-12-18T03:52:53;-8.89;90.96
12907;DHT22;6521;50.498;8.474;2022-12-18T03:55:30;-8.86;91.22
12907;DHT22;6521;50.498;8.474;2022-12-18T03:58:06;-8.86;91.22
12907;DHT22;6521;50.498;8.474;2022-12-18T04:00:53;-8.88;91.10
12907;DHT22;6521;50.498;8.474;2022-12-18T04:03:26;-8.93;90.98
12907;DHT22;6521;50.498;8.474;2022-12-18T04:06:02;-8.95;91.21
12907;DHT22;6521;50.498;8.474;2022-12-18T04:08:34;-8.96;91.25
12907;DHT22;6521;50.498;8.474;2022-12-18T04:11:09;-8.92;91.33
12907;DHT22;6521;50.498;8.474;2022-12-18T04:13:42;-8.91;91.34
12907;DHT22;6521;50.498;8.474;2022-12-18T04:16:19;-8.92;91.35
12907;DHT22;6521;50.498;8.474;2022-12-18T04:18:54;-8.95;91.30
12907;DHT22;6521;50.498;8.474;2022-12-18T04:21:26;-8.96;91.38
12907;DHT22;6521;50.498;8.474;2022-12-18T04:23:59;-8.96;91.56
12907;DHT22;6521;50.498;8.474;2022-12-18T04:26:29;-8.93;91.57
12907;DHT22;6521;50.498;8.474;2022-12-18T04:29:14;-8.89;91.56
12907;DHT22;6521;50.498;8.474;2022-12-18T04:31:45;-8.89;91.54
12907;DHT22;6521;50.498;8.474;2022-12-18T04:34:15;-8.91;91.37
12907;DHT22;6521;50.498;8.474;2022-12-18T04:36:52;-8.92;91.24
12907;DHT22;6521;50.498;8.474;2022-12-18T04:39:25;-8.99;91.20
12907;DHT22;6521;50.498;8.474;2022-12-18T04:41:58;-8.99;91.47
12907;DHT22;6521;50.498;8.474;2022-12-18T04:44:29;-9.00;91.60
12907;DHT22;6521;50.498;8.474;2022-12-18T04:47:00;-8.96;91.68
12907;DHT22;6521;50.498;8.474;2022-12-18T04:49:31;-8.99;91.70
12907;DHT22;6521;50.498;8.474;2022-12-18T04:52:02;-8.97;91.82
12907;DHT22;6521;50.498;8.474;2022-12-18T04:54:32;-8.97;91.83
12907;DHT22;6521;50.498;8.474;2022-12-18T04:57:03;-8.97;91.90
12907;DHT22;6521;50.498;8.474;2022-12-18T04:59:34;-9.03;91.76
12907;DHT22;6521;50.498;8.474;2022-12-18T05:02:05;-9.03;91.86
12907;DHT22;6521;50.498;8.474;2022-12-18T05:04:35;-8.97;91.95
12907;DHT22;6521;50.498;8.474;2022-12-18T05:07:06;-8.99;91.71
12907;DHT22;6521;50.498;8.474;2022-12-18T05:09:37;-8.97;91.65
12907;DHT22;6521;50.498;8.474;2022-12-18T05:12:07;-9.00;91.45
12907;DHT22;6521;50.498;8.474;2022-12-18T05:14:38;-9.02;91.45
12907;DHT22;6521;50.498;8.474;2022-12-18T05:17:09;-8.99;91.50
12907;DHT22;6521;50.498;8.474;2022-12-18T05:19:40;-8.99;91.56
12907;DHT22;6521;50.498;8.474;2022-12-18T05:22:11;-8.97;91.51
12907;DHT22;6521;50.498;8.474;2022-12-18T05:24:42;-8.99;91.33
12907;DHT22;6521;50.498;8.474;2022-12-18T05:27:13;-9.03;91.23
12907;DHT22;6521;50.498;8.474;2022-12-18T05:29:43;-9.02;91.32
12907;DHT22;6521;50.498;8.474;2022-12-18T05:32:14;-9.14;91.06
12907;DHT22;6521;50.498;8.474;2022-12-18T05:34:45;-9.14;91.25
12907;DHT22;6521;50.498;8.474;2022-12-18T05:37:15;-9.12;91.37
12907;DHT22;6521;50.498;8.474;2022-12-18T05:39:47;-9.16;91.24
12907;DHT22;6521;50.498;8.474;2022-12-18T05:42:18;-9.13;91.41
12907;DHT22;6521;50.498;8.474;2022-12-18T05:44:49;-9.13;91.12
12907;DHT22;6521;50.498;8.474;2022-12-18T05:47:20;-9.17;91.13
12907;DHT22;6521;50.498;8.474;2022-12-18T05:49:50;-9.20;91.04
12907;DHT22;6521;50.498;8.474;2022-12-18T05:52:21;-9.22;91.13
12907;DHT22;6521;50.498;8.474;2022-12-18T05:54:52;-9.20;91.20
12907;DHT22;6521;50.498;8.474;2022-12-18T05:57:23;-9.20;91.15
12907;DHT22;6521;50.498;8.474;2022-12-18T05:59:53;-9.20;91.10
12907;DHT22;6521;50.498;8.474;2022-12-18T06:02:24;-9.22;91.08
12907;DHT22;6521;50.498;8.474;2022-12-18T06:04:55;-9.19;91.10
12907;DHT22;6521;50.498;8.474;2022-12-18T06:07:26;-9.20;90.85
12907;DHT22;6521;50.498;8.474;2022-12-18T06:09:56;-9.23;90.88
12907;DHT22;6521;50.498;8.474;2022-12-18T06:12:27;-9.23;90.69
12907;DHT22;6521;50.498;8.474;2022-12-18T06:14:58;-9.30;90.44
12907;DHT22;6521;50.498;8.474;2022-12-18T06:17:33;-9.28;90.69
12907;DHT22;6521;50.498;8.474;2022-12-18T06:20:04;-9.37;90.58
12907;DHT22;6521;50.498;8.474;2022-12-18T06:22:36;-9.31;90.83
12907;DHT22;6521;50.498;8.474;2022-12-18T06:25:07;-9.34;90.85
12907;DHT22;6521;50.498;8.474;2022-12-18T06:27:39;-9.35;90.80
12907;DHT22;6521;50.498;8.474;2022-12-18T06:30:10;-9.35;90.72
12907;DHT22;6521;50.498;8.474;2022-12-18T06:32:41;-9.37;90.63
12907;DHT22;6521;50.498;8.474;2022-12-18T06:35:12;-9.35;90.61
12907;DHT22;6521;50.498;8.474;2022-12-18T06:37:43;-9.41;90.59
12907;DHT22;6521;50.498;8.474;2022-12-18T06:40:14;-9.41;90.63
12907;DHT22;6521;50.498;8.474;2022-12-18T06:42:44;-9.41;90.63
12907;DHT22;6521;50.498;8.474;2022-12-18T06:45:15;-9.41;90.67
12907;DHT22;6521;50.498;8.474;2022-12-18T06:47:46;-9.41;90.68
12907;DHT22;6521;50.498;8.474;2022-12-18T06:50:17;-9.38;90.95
12907;DHT22;6521;50.498;8.474;2022-12-18T06:52:49;-9.38;90.94
12907;DHT22;6521;50.498;8.474;2022-12-18T06:55:20;-9.38;90.84
12907;DHT22;6521;50.498;8.474;2022-12-18T06:57:51;-9.38;90.74
12907;DHT22;6521;50.498;8.474;2022-12-18T07:00:22;-9.40;90.72
12907;DHT22;6521;50.498;8.474;2022-12-18T07:02:52;-9.38;90.80
12907;DHT22;6521;50.498;8.474;2022-12-18T07:05:23;-9.38;90.71
12907;DHT22;6521;50.498;8.474;2022-12-18T07:07:54;-9.38;90.64
12907;DHT22;6521;50.498;8.474;2022-12-18T07:10:25;-9.34;90.68
12907;DHT22;6521;50.498;8.474;2022-12-18T07:12:56;-9.33;90.65
12907;DHT22;6521;50.498;8.474;2022-12-18T07:15:26;-9.34;90.53
12907;DHT22;6521;50.498;8.474;2022-12-18T07:17:57;-9.34;90.38
12907;DHT22;6521;50.498;8.474;2022-12-18T07:20:29;-9.30;90.37
12907;DHT22;6521;50.498;8.474;2022-12-18T07:23:04;-9.34;90.23
12907;DHT22;6521;50.498;8.474;2022-12-18T07:25:36;-9.33;90.27
12907;DHT22;6521;50.498;8.474;2022-12-18T07:28:07;-9.34;90.17
12907;DHT22;6521;50.498;8.474;2022-12-18T07:30:38;-9.38;89.70
12907;DHT22;6521;50.498;8.474;2022-12-18T07:33:09;-9.44;89.48
12907;DHT22;6521;50.498;8.474;2022-12-18T07:35:40;-9.47;89.39
12907;DHT22;6521;50.498;8.474;2022-12-18T07:38:10;-9.45;89.61
12907;DHT22;6521;50.498;8.474;2022-12-18T07:40:41;-9.47;89.52
12907;DHT22;6521;50.498;8.474;2022-12-18T07:43:12;-9.48;89.31
12907;DHT22;6521;50.498;8.474;2022-12-18T07:45:43;-9.47;89.57
12907;DHT22;6521;50.498;8.474;2022-12-18T07:48:14;-9.44;89.34
12907;DHT22;6521;50.498;8.474;2022-12-18T07:50:44;-9.44;89.43
12907;DHT22;6521;50.498;8.474;2022-12-18T07:53:15;-9.43;89.46
12907;DHT22;6521;50.498;8.474;2022-12-18T07:55:46;-9.43;89.45
12907;DHT22;6521;50.498;8.474;2022-12-18T07:58:16;-9.41;89.44
12907;DHT22;6521;50.498;8.474;2022-12-18T08:00:47;-9.43;89.22
12907;DHT22;6521;50.498;8.474;2022-12-18T08:03:18;-9.43;89.39
12907;DHT22;6521;50.498;8.474;2022-12-18T08:05:49;-9.41;89.46
12907;DHT22;6521;50.498;8.474;2022-12-18T08:08:20;-9.35;89.55
12907;DHT22;6521;50.498;8.474;2022-12-18T08:10:51;-9.40;89.25
12907;DHT22;6521;50.498;8.474;2022-12-18T08:13:22;-9.37;89.32
12907;DHT22;6521;50.498;8.474;2022-12-18T08:15:58;-9.37;89.41
12907;DHT22;6521;50.498;8.474;2022-12-18T08:18:29;-9.31;89.59
12907;DHT22;6521;50.498;8.474;2022-12-18T08:21:10;-9.26;89.64
12907;DHT22;6521;50.498;8.474;2022-12-18T08:23:41;-9.19;89.68
12907;DHT22;6521;50.498;8.474;2022-12-18T08:26:12;-9.17;89.66
12907;DHT22;6521;50.498;8.474;2022-12-18T08:28:43;-9.13;89.68
12907;DHT22;6521;50.498;8.474;2022-12-18T08:31:14;-9.07;89.70
12907;DHT22;6521;50.498;8.474;2022-12-18T08:33:48;-9.02;89.77
12907;DHT22;6521;50.498;8.474;2022-12-18T08:36:20;-8.95;89.77
12907;DHT22;6521;50.498;8.474;2022-12-18T08:38:51;-8.92;89.70
12907;DHT22;6521;50.498;8.474;2022-12-18T08:41:22;-8.89;89.43
12907;DHT22;6521;50.498;8.474;2022-12-18T08:43:53;-8.88;89.63
12907;DHT22;6521;50.498;8.474;2022-12-18T08:46:43;-8.78;90.39
12907;DHT22;6521;50.498;8.474;2022-12-18T08:49:14;-8.68;90.14
12907;DHT22;6521;50.498;8.474;2022-12-18T08:51:46;-8.68;89.81
12907;DHT22;6521;50.498;8.474;2022-12-18T08:54:17;-8.68;90.06
12907;DHT22;6521;50.498;8.474;2022-12-18T08:56:48;-8.68;90.19
12907;DHT22;6521;50.498;8.474;2022-12-18T08:59:20;-8.62;90.35
12907;DHT22;6521;50.498;8.474;2022-12-18T09:01:53;-8.59;90.56
12907;DHT22;6521;50.498;8.474;2022-12-18T09:04:24;-8.55;90.76
12907;DHT22;6521;50.498;8.474;2022-12-18T09:06:55;-8.46;90.99
12907;DHT22;6521;50.498;8.474;2022-12-18T09:09:25;-8.44;91.21
12907;DHT22;6521;50.498;8.474;2022-12-18T09:11:56;-8.37;91.42
12907;DHT22;6521;50.498;8.474;2022-12-18T09:14:27;-8.30;91.58
12907;DHT22;6521;50.498;8.474;2022-12-18T09:16:58;-8.23;91.68
12907;DHT22;6521;50.498;8.474;2022-12-18T09:19:28;-8.18;91.84
12907;DHT22;6521;50.498;8.474;2022-12-18T09:22:00;-8.11;92.00
12907;DHT22;6521;50.498;8.474;2022-12-18T09:24:31;-8.03;92.22
12907;DHT22;6521;50.498;8.474;2022-12-18T09:27:02;-7.96;92.40
12907;DHT22;6521;50.498;8.474;2022-12-18T09:29:33;-7.93;92.52
12907;DHT22;6521;50.498;8.474;2022-12-18T09:32:06;-7.82;92.77
12907;DHT22;6521;50.498;8.474;2022-12-18T09:34:36;-7.72;92.79
12907;DHT22;6521;50.498;8.474;2022-12-18T09:37:07;-7.65;93.01
12907;DHT22;6521;50.498;8.474;2022-12-18T09:39:38;-7.54;93.11
12907;DHT22;6521;50.498;8.474;2022-12-18T09:42:20;-7.39;93.21
12907;DHT22;6521;50.498;8.474;2022-12-18T09:44:54;-7.21;93.56
12907;DHT22;6521;50.498;8.474;2022-12-18T09:47:30;-6.96;93.61
12907;DHT22;6521;50.498;8.474;2022-12-18T09:50:29;-6.55;93.11
12907;DHT22;6521;50.498;8.474;2022-12-18T09:53:11;-6.17;91.97
12907;DHT22;6521;50.498;8.474;2022-12-18T09:55:45;-5.90;91.39
12907;DHT22;6521;50.498;8.474;2022-12-18T09:58:24;-5.80;90.37
12907;DHT22;6521;50.498;8.474;2022-12-18T10:00:57;-5.62;90.20
12907;DHT22;6521;50.498;8.474;2022-12-18T10:03:28;-5.43;90.20
12907;DHT22;6521;50.498;8.474;2022-12-18T10:11:52;-4.80;88.93
12907;DHT22;6521;50.498;8.474;2022-12-18T10:14:40;-4.48;88.25
12907;DHT22;6521;50.498;8.474;2022-12-18T10:17:39;-4.26;86.48
12907;DHT22;6521;50.498;8.474;2022-12-18T10:20:23;-4.05;86.36
12907;DHT22;6521;50.498;8.474;2022-12-18T10:26:08;-3.66;85.27
12907;DHT22;6521;50.498;8.474;2022-12-18T10:28:41;-3.57;84.32
12907;DHT22;6521;50.498;8.474;2022-12-18T10:31:22;-3.55;84.33
12907;DHT22;6521;50.498;8.474;2022-12-18T10:33:54;-3.40;83.79
12907;DHT22;6521;50.498;8.474;2022-12-18T10:36:24;-3.20;83.76
12907;DHT22;6521;50.498;8.474;2022-12-18T10:39:21;-3.31;82.48
12907;DHT22;6521;50.498;8.474;2022-12-18T10:42:19;-3.36;83.03
12907;DHT22;6521;50.498;8.474;2022-12-18T10:45:02;-3.36;83.49
12907;DHT22;6521;50.498;8.474;2022-12-18T10:47:34;-3.45;83.20
12907;DHT22;6521;50.498;8.474;2022-12-18T10:50:19;-3.60;83.39
12907;DHT22;6521;50.498;8.474;2022-12-18T10:53:00;-3.62;84.08
12907;DHT22;6521;50.498;8.474;2022-12-18T10:55:37;-3.78;84.20
12907;DHT22;6521;50.498;8.474;2022-12-18T10:58:20;-3.81;84.63
12907;DHT22;6521;50.498;8.474;2022-12-18T11:01:06;-3.84;85.00
12907;DHT22;6521;50.498;8.474;2022-12-18T11:03:41;-3.83;85.46
12907;DHT22;6521;50.498;8.474;2022-12-18T11:06:14;-3.80;86.00
12907;DHT22;6521;50.498;8.474;2022-12-18T11:09:05;-3.80;86.24
12907;DHT22;6521;50.498;8.474;2022-12-18T11:11:37;-3.67;86.47
12907;DHT22;6521;50.498;8.474;2022-12-18T11:14:27;-3.64;86.27
12907;DHT22;6521;50.498;8.474;2022-12-18T11:16:59;-3.53;86.65
12907;DHT22;6521;50.498;8.474;2022-12-18T11:19:36;-3.34;86.58
12907;DHT22;6521;50.498;8.474;2022-12-18T11:22:21;-3.13;85.85
12907;DHT22;6521;50.498;8.474;2022-12-18T11:24:55;-2.94;85.96
12907;DHT22;6521;50.498;8.474;2022-12-18T11:27:28;-2.68;85.69
12907;DHT22;6521;50.498;8.474;2022-12-18T11:30:52;-2.53;84.53
12907;DHT22;6521;50.498;8.474;2022-12-18T11:33:11;-2.39;84.41
12907;DHT22;6521;50.498;8.474;2022-12-18T11:35:53;-2.19;83.99
12907;DHT22;6521;50.498;8.474;2022-12-18T11:38:32;-2.06;83.68
12907;DHT22;6521;50.498;8.474;2022-12-18T11:44:29;-1.60;82.79
12907;DHT22;6521;50.498;8.474;2022-12-18T11:47:21;-1.53;81.36
12907;DHT22;6521;50.498;8.474;2022-12-18T11:49:55;-1.74;80.04
12907;DHT22;6521;50.498;8.474;2022-12-18T11:52:38;-1.71;80.82
12907;DHT22;6521;50.498;8.474;2022-12-18T11:57:56;-1.98;81.26
12907;DHT22;6521;50.498;8.474;2022-12-18T12:00:29;-1.98;81.18
12907;DHT22;6521;50.498;8.474;2022-12-18T12:08:51;-2.25;81.25
12907;DHT22;6521;50.498;8.474;2022-12-18T12:11:57;-2.36;81.56
12907;DHT22;6521;50.498;8.474;2022-12-18T12:14:37;-2.32;82.12
12907;DHT22;6521;50.498;8.474;2022-12-18T12:17:38;-2.28;81.76
12907;DHT22;6521;50.498;8.474;2022-12-18T12:26:05;-2.70;81.47
12907;DHT22;6521;50.498;8.474;2022-12-18T12:29:23;-2.67;81.84
12907;DHT22;6521;50.498;8.474;2022-12-18T12:34:52;-3.12;81.85
12907;DHT22;6521;50.498;8.474;2022-12-18T12:40:48;-3.71;82.53
12907;DHT22;6521;50.498;8.474;2022-12-18T12:46:11;-3.73;83.16
12907;DHT22;6521;50.498;8.474;2022-12-18T12:48:55;-3.83;83.71
12907;DHT22;6521;50.498;8.474;2022-12-18T12:51:35;-3.88;84.31
12907;DHT22;6521;50.498;8.474;2022-12-18T12:54:15;-3.90;84.45
12907;DHT22;6521;50.498;8.474;2022-12-18T12:57:14;-4.01;84.65
12907;DHT22;6521;50.498;8.474;2022-12-18T13:08:00;-4.15;85.13
12907;DHT22;6521;50.498;8.474;2022-12-18T13:10:38;-4.18;85.11
12907;DHT22;6521;50.498;8.474;2022-12-18T13:13:11;-4.18;85.37
12907;DHT22;6521;50.498;8.474;2022-12-18T13:15:47;-4.24;85.35
12907;DHT22;6521;50.498;8.474;2022-12-18T13:18:23;-4.32;85.18
12907;DHT22;6521;50.498;8.474;2022-12-18T13:23:26;-4.55;85.42
12907;DHT22;6521;50.498;8.474;2022-12-18T13:34:20;-4.57;86.44
12907;DHT22;6521;50.498;8.474;2022-12-18T13:36:53;-4.63;86.41
12907;DHT22;6521;50.498;8.474;2022-12-18T13:39:31;-4.63;86.85
12907;DHT22;6521;50.498;8.474;2022-12-18T13:44:40;-4.87;86.83
12907;DHT22;6521;50.498;8.474;2022-12-18T13:47:27;-4.88;87.58
12907;DHT22;6521;50.498;8.474;2022-12-18T13:49:59;-4.86;87.86
12907;DHT22;6521;50.498;8.474;2022-12-18T13:52:37;-4.77;88.06
12907;DHT22;6521;50.498;8.474;2022-12-18T13:55:16;-4.79;87.82
12907;DHT22;6521;50.498;8.474;2022-12-18T13:57:48;-4.70;87.89
12907;DHT22;6521;50.498;8.474;2022-12-18T14:02:53;-4.72;87.77
12907;DHT22;6521;50.498;8.474;2022-12-18T14:07:54;-4.63;87.80
12907;DHT22;6521;50.498;8.474;2022-12-18T14:10:30;-4.57;87.90
12907;DHT22;6521;50.498;8.474;2022-12-18T14:13:06;-4.66;87.65
12907;DHT22;6521;50.498;8.474;2022-12-18T14:15:42;-4.63;87.80
12907;DHT22;6521;50.498;8.474;2022-12-18T14:20:45;-4.65;88.09
12907;DHT22;6521;50.498;8.474;2022-12-18T14:23:45;-4.62;88.14
12907;DHT22;6521;50.498;8.474;2022-12-18T14:26:29;-4.60;88.04
12907;DHT22;6521;50.498;8.474;2022-12-18T14:29:17;-4.72;88.06
12907;DHT22;6521;50.498;8.474;2022-12-18T14:32:16;-4.81;88.28
12907;DHT22;6521;50.498;8.474;2022-12-18T14:34:52;-4.80;88.32
12907;DHT22;6521;50.498;8.474;2022-12-18T14:37:26;-4.84;88.47
12907;DHT22;6521;50.498;8.474;2022-12-18T14:40:02;-4.81;88.56
12907;DHT22;6521;50.498;8.474;2022-12-18T14:42:34;-4.83;88.50
12907;DHT22;6521;50.498;8.474;2022-12-18T14:45:37;-4.84;88.54
12907;DHT22;6521;50.498;8.474;2022-12-18T14:50:42;-4.81;88.82
12907;DHT22;6521;50.498;8.474;2022-12-18T14:53:20;-4.86;88.85
12907;DHT22;6521;50.498;8.474;2022-12-18T14:55:52;-4.87;88.98
12907;DHT22;6521;50.498;8.474;2022-12-18T14:58:23;-4.86;89.02
12907;DHT22;6521;50.498;8.474;2022-12-18T15:00:54;-4.91;89.00
12907;DHT22;6521;50.498;8.474;2022-12-18T15:03:26;-4.97;89.11
12907;DHT22;6521;50.498;8.474;2022-12-18T15:06:15;-5.09;89.41
12907;DHT22;6521;50.498;8.474;2022-12-18T15:08:46;-5.09;89.80
12907;DHT22;6521;50.498;8.474;2022-12-18T15:11:30;-5.09;89.96
12907;DHT22;6521;50.498;8.474;2022-12-18T15:14:38;-5.08;90.05
12907;DHT22;6521;50.498;8.474;2022-12-18T15:17:21;-5.11;90.03
12907;DHT22;6521;50.498;8.474;2022-12-18T15:20:02;-5.11;90.25
12907;DHT22;6521;50.498;8.474;2022-12-18T15:22:36;-5.15;90.31
12907;DHT22;6521;50.498;8.474;2022-12-18T15:25:36;-5.12;90.50
12907;DHT22;6521;50.498;8.474;2022-12-18T15:28:35;-5.11;90.64
12907;DHT22;6521;50.498;8.474;2022-12-18T15:33:45;-5.15;91.04
12907;DHT22;6521;50.498;8.474;2022-12-18T15:36:30;-5.15;91.10
12907;DHT22;6521;50.498;8.474;2022-12-18T15:39:01;-5.12;91.20
12907;DHT22;6521;50.498;8.474;2022-12-18T15:41:33;-5.14;91.35
12907;DHT22;6521;50.498;8.474;2022-12-18T15:44:23;-5.14;91.37
12907;DHT22;6521;50.498;8.474;2022-12-18T15:46:55;-5.11;91.42
12907;DHT22;6521;50.498;8.474;2022-12-18T15:49:26;-5.11;91.49
12907;DHT22;6521;50.498;8.474;2022-12-18T15:51:59;-5.09;91.48
12907;DHT22;6521;50.498;8.474;2022-12-18T15:54:30;-5.12;91.48
12907;DHT22;6521;50.498;8.474;2022-12-18T15:57:19;-5.12;91.36
12907;DHT22;6521;50.498;8.474;2022-12-18T15:59:56;-5.14;91.47
12907;DHT22;6521;50.498;8.474;2022-12-18T16:02:28;-5.16;91.56
12907;DHT22;6521;50.498;8.474;2022-12-18T16:04:59;-5.16;91.66
12907;DHT22;6521;50.498;8.474;2022-12-18T16:07:29;-5.18;91.68
12907;DHT22;6521;50.498;8.474;2022-12-18T16:10:00;-5.14;91.77
12907;DHT22;6521;50.498;8.474;2022-12-18T16:12:31;-5.12;91.78
12907;DHT22;6521;50.498;8.474;2022-12-18T16:15:04;-5.14;91.87
12907;DHT22;6521;50.498;8.474;2022-12-18T16:17:35;-5.12;91.90
12907;DHT22;6521;50.498;8.474;2022-12-18T16:20:17;-5.12;91.87
12907;DHT22;6521;50.498;8.474;2022-12-18T16:22:48;-5.16;92.01
12907;DHT22;6521;50.498;8.474;2022-12-18T16:25:21;-5.14;92.05
12907;DHT22;6521;50.498;8.474;2022-12-18T16:27:53;-5.14;92.10
12907;DHT22;6521;50.498;8.474;2022-12-18T16:30:28;-5.16;92.23
12907;DHT22;6521;50.498;8.474;2022-12-18T16:33:00;-5.12;92.23
12907;DHT22;6521;50.498;8.474;2022-12-18T16:35:31;-5.15;92.35
12907;DHT22;6521;50.498;8.474;2022-12-18T16:38:02;-5.14;92.45
12907;DHT22;6521;50.498;8.474;2022-12-18T16:40:33;-5.11;92.50
12907;DHT22;6521;50.498;8.474;2022-12-18T16:43:24;-5.09;92.49
12907;DHT22;6521;50.498;8.474;2022-12-18T16:45:55;-5.05;92.50
12907;DHT22;6521;50.498;8.474;2022-12-18T16:48:27;-5.08;92.52
12907;DHT22;6521;50.498;8.474;2022-12-18T16:51:03;-5.07;92.51
12907;DHT22;6521;50.498;8.474;2022-12-18T16:53:34;-5.05;92.47
12907;DHT22;6521;50.498;8.474;2022-12-18T16:56:05;-5.03;92.52
12907;DHT22;6521;50.498;8.474;2022-12-18T16:58:36;-5.04;92.52
12907;DHT22;6521;50.498;8.474;2022-12-18T17:01:09;-5.04;92.50
12907;DHT22;6521;50.498;8.474;2022-12-18T17:03:39;-5.03;92.58
12907;DHT22;6521;50.498;8.474;2022-12-18T17:06:10;-5.00;92.74
12907;DHT22;6521;50.498;8.474;2022-12-18T17:08:41;-4.95;92.71
12907;DHT22;6521;50.498;8.474;2022-12-18T17:11:12;-4.94;92.68
12907;DHT22;6521;50.498;8.474;2022-12-18T17:13:43;-4.94;92.75
12907;DHT22;6521;50.498;8.474;2022-12-18T17:16:14;-4.91;92.74
12907;DHT22;6521;50.498;8.474;2022-12-18T17:18:45;-4.91;92.80
12907;DHT22;6521;50.498;8.474;2022-12-18T17:21:16;-4.88;92.85
12907;DHT22;6521;50.498;8.474;2022-12-18T17:23:47;-4.86;92.77
12907;DHT22;6521;50.498;8.474;2022-12-18T17:26:18;-4.81;92.83
12907;DHT22;6521;50.498;8.474;2022-12-18T17:28:48;-4.81;92.79
12907;DHT22;6521;50.498;8.474;2022-12-18T17:31:21;-4.80;92.81
12907;DHT22;6521;50.498;8.474;2022-12-18T17:33:52;-4.79;92.78
12907;DHT22;6521;50.498;8.474;2022-12-18T17:36:25;-4.79;92.78
12907;DHT22;6521;50.498;8.474;2022-12-18T17:39:02;-4.77;92.81
12907;DHT22;6521;50.498;8.474;2022-12-18T17:41:33;-4.77;92.92
12907;DHT22;6521;50.498;8.474;2022-12-18T17:44:04;-4.77;92.93
12907;DHT22;6521;50.498;8.474;2022-12-18T17:46:35;-4.77;92.95
12907;DHT22;6521;50.498;8.474;2022-12-18T17:49:06;-4.76;92.99
12907;DHT22;6521;50.498;8.474;2022-12-18T17:51:37;-4.77;93.04
12907;DHT22;6521;50.498;8.474;2022-12-18T17:54:08;-4.74;92.98
12907;DHT22;6521;50.498;8.474;2022-12-18T17:56:39;-4.73;92.91
12907;DHT22;6521;50.498;8.474;2022-12-18T17:59:10;-4.74;93.00
12907;DHT22;6521;50.498;8.474;2022-12-18T18:01:40;-4.73;93.01
12907;DHT22;6521;50.498;8.474;2022-12-18T18:04:13;-4.70;92.99